Time;durP1;ratioP1;P1;durP2;ratioP2;P2;SDS_P1;SDS_P2;PMS_P1;PMS_P2;Temp;Humidity;BMP_temperature;BMP_pressure;BME280_temperature;BME280_humidity;BME280_pressure;Samples;Min_cycle;Max_cycle;Signal;HPM_P1;HPM_P2
2021/10/12 00:01:09;;;;;;;;;;;;;;;29.42;76.08;100529.06;5069740;28;69969;-42
2021/10/12 00:03:39;;;;;;;;;;;;;;;29.39;76.13;100528.47;5067050;28;67251;-42
2021/10/12 00:06:11;;;;;;;;;;;;;;;29.42;76.33;100537.16;5064109;28;68982;-41
2021/10/12 00:08:41;;;;;;;;;;;;;;;29.41;75.77;100541.75;5066750;28;66625;-41
2021/10/12 00:11:12;;;;;;;;;;;;;;;29.40;76.36;100532.81;5074550;28;69911;-42
2021/10/12 00:13:42;;;;;;;;;;;;;;;29.40;76.42;100530.13;5068162;28;66971;-41
2021/10/12 00:16:12;;;;;;;;;;;;;;;29.40;76.23;100530.13;5061093;28;70374;-43
2021/10/12 00:18:44;;;;;;;;;;;;;;;29.43;76.55;100544.25;5053187;28;65250;-41
2021/10/12 00:21:19;;;;;;;;;;;;;;;29.42;76.53;100547.97;5065575;28;70463;-42
2021/10/12 00:24:15;;;;;;;;;;;;;;;29.43;77.00;100549.66;5073316;27;65820;-42
2021/10/12 00:27:03;;;;;;;;;;;;;;;29.43;76.96;100549.66;5050723;28;69175;-40
2021/10/12 00:30:12;;;;;;;;;;;;;;;29.43;76.97;100545.06;5069279;28;66909;-41
2021/10/12 00:33:04;;;;;;;;;;;;;;;29.45;76.49;100544.84;5070476;28;70532;-42
2021/10/12 00:36:27;;;;;;;;;;;;;;;29.45;76.82;100544.84;5066454;27;66984;-42
2021/10/12 00:39:15;;;;;;;;;;;;;;;29.47;76.44;100545.44;5064169;28;68719;-42
2021/10/12 00:42:11;;;;;;;;;;;;;;;29.47;76.83;100548.16;5069252;28;66725;-41
2021/10/12 00:45:20;;;;;;;;;;;;;;;29.48;76.67;100539.00;5065516;27;69582;-41
2021/10/12 00:48:17;;;;;;;;;;;;;;;29.49;76.66;100546.06;5057766;28;65849;-41
2021/10/12 00:51:10;;;;;;;;;;;;;;;29.50;76.26;100553.13;5037697;28;70186;-42
2021/10/12 00:54:02;;;;;;;;;;;;;;;29.51;76.70;100546.69;5066500;28;66298;-41
2021/10/12 00:57:13;;;;;;;;;;;;;;;29.51;76.38;100533.16;5052125;28;69605;-42
2021/10/12 01:00:41;;;;;;;;;;;;;;;29.53;76.14;100539.16;5061928;28;65757;-42
2021/10/12 01:03:38;;;;;;;;;;;;;;;29.54;76.76;100546.25;5064726;27;70431;-41
2021/10/12 01:06:25;;;;;;;;;;;;;;;29.55;76.22;100558.69;5047805;28;64221;-42
2021/10/12 01:09:17;;;;;;;;;;;;;;;29.56;76.40;100554.94;5048767;28;69263;-41
2021/10/12 01:12:27;;;;;;;;;;;;;;;29.57;76.14;100546.63;5063980;27;67107;-41
2021/10/12 01:15:23;;;;;;;;;;;;;;;29.59;76.73;100551.81;5053705;28;68617;-42
2021/10/12 01:18:40;;;;;;;;;;;;;;;29.59;76.46;100557.22;5064829;28;43104;-42
2021/10/12 01:21:27;;;;;;;;;;;;;;;29.60;76.39;100553.47;5062890;28;70621;-42
2021/10/12 01:24:48;;;;;;;;;;;;;;;29.63;76.29;100566.56;5061816;27;65582;-41
2021/10/12 01:27:52;;;;;;;;;;;;;;;29.65;76.35;100569.06;5068585;27;69865;-41
2021/10/12 01:30:54;;;;;;;;;;;;;;;29.64;75.89;100568.22;5070989;27;66970;-41
2021/10/12 01:33:38;;;;;;;;;;;;;;;29.66;76.25;100573.41;5067290;28;69134;-41
2021/10/12 01:36:29;;;;;;;;;;;;;;;29.68;76.23;100580.25;5068203;28;67145;-41
2021/10/12 01:39:59;;;;;;;;;;;;;;;29.71;76.24;100595.22;5086271;27;69373;-41
2021/10/12 01:43:27;;;;;;;;;;;;;;;29.72;76.63;100591.47;5072347;28;65706;-41
2021/10/12 01:46:24;;;;;;;;;;;;;;;29.73;76.53;100587.72;5059378;28;71053;-41
2021/10/12 01:49:17;;;;;;;;;;;;;;;29.77;76.46;100592.44;5069173;28;65927;-40
2021/10/12 01:52:19;;;;;;;;;;;;;;;29.78;76.21;100594.13;5026538;28;68821;-41
2021/10/12 01:55:31;;;;;;;;;;;;;;;29.79;76.03;100586.84;5036782;28;66031;-41
2021/10/12 01:58:06;;;;;;;;;;;;;;;29.82;75.88;100587.22;5031567;28;70006;-41
2021/10/12 02:00:48;;;;;;;;;;;;;;;29.83;75.96;100594.28;5046458;28;65688;-41
2021/10/12 02:04:21;;;;;;;;;;;;;;;29.84;76.05;100590.53;5020019;28;68829;-40
2021/10/12 02:07:07;;;;;;;;;;;;;;;29.88;76.23;100579.28;5012800;28;65717;-40
2021/10/12 02:10:31;;;;;;;;;;;;;;;29.90;76.71;100593.41;5029708;28;69297;-42
2021/10/12 02:13:46;;;;;;;;;;;;;;;29.92;76.86;100602.09;5032592;28;66406;-42
2021/10/12 02:16:51;;;;;;;;;;;;;;;29.95;77.52;100598.97;5024941;28;70273;-41
2021/10/12 02:19:53;;;;;;;;;;;;;;;29.94;77.23;100595.44;5038898;28;66497;-42
2021/10/12 02:22:57;;;;;;;;;;;;;;;29.95;76.32;100589.00;5043880;28;69045;-42
2021/10/12 02:25:44;;;;;;;;;;;;;;;29.97;76.00;100589.59;5037129;28;66621;-41
2021/10/12 02:28:38;;;;;;;;;;;;;;;29.97;76.17;100581.47;5035756;28;70691;-42
2021/10/12 02:31:54;;;;;;;;;;;;;;;29.99;76.05;100594.78;5062685;27;66634;-42
2021/10/12 02:35:45;;;;;;;;;;;;;;;30.03;75.33;100598.69;5057151;28;70069;-41
2021/10/12 02:39:01;;;;;;;;;;;;;;;30.01;74.80;100601.63;5043521;28;66585;-40
2021/10/12 02:41:59;;;;;;;;;;;;;;;30.00;74.28;100601.84;5034711;28;69722;-41
2021/10/12 02:45:20;;;;;;;;;;;;;;;30.00;75.12;100599.94;5040184;28;66366;-41
2021/10/12 02:48:28;;;;;;;;;;;;;;;30.02;74.51;100584.34;5043109;28;71566;-42
2021/10/12 02:51:10;;;;;;;;;;;;;;;30.02;74.04;100586.22;5016531;28;65842;-42
2021/10/12 02:54:20;;;;;;;;;;;;;;;30.03;74.67;100582.47;5043811;28;70548;-41
2021/10/12 02:57:27;;;;;;;;;;;;;;;30.06;75.16;100582.00;5035229;28;66842;-41
2021/10/12 03:00:26;;;;;;;;;;;;;;;30.10;74.83;100572.41;5017757;28;69028;-42
2021/10/12 03:03:49;;;;;;;;;;;;;;;30.10;74.85;100566.19;5019242;27;44099;-41
2021/10/12 03:07:05;;;;;;;;;;;;;;;30.13;74.88;100550.31;5013394;27;69542;-41
2021/10/12 03:09:49;;;;;;;;;;;;;;;30.16;75.28;100554.47;5016559;27;66677;-41
2021/10/12 03:12:39;;;;;;;;;;;;;;;30.18;75.16;100550.50;5071693;27;70235;-41
2021/10/12 03:15:35;;;;;;;;;;;;;;;30.20;74.90;100545.69;5014181;27;66149;-41
2021/10/12 03:18:25;;;;;;;;;;;;;;;30.24;75.30;100535.28;5006003;27;69145;-39
2021/10/12 03:21:00;;;;;;;;;;;;;;;30.25;75.03;100535.03;5075986;27;65811;-39
2021/10/12 03:23:52;;;;;;;;;;;;;;;30.29;74.46;100532.72;5002702;27;69661;-40
2021/10/12 03:26:37;;;;;;;;;;;;;;;30.31;74.64;100518.97;5081364;27;64925;-39
2021/10/12 03:29:23;;;;;;;;;;;;;;;30.26;74.65;100516.94;5024592;27;69183;-37
2021/10/12 03:32:32;;;;;;;;;;;;;;;30.35;74.15;100528.28;5009599;27;66297;-39
2021/10/12 03:35:36;;;;;;;;;;;;;;;30.36;74.42;100522.63;5017758;27;69178;-36
2021/10/12 03:38:16;;;;;;;;;;;;;;;30.41;73.70;100527.38;5007248;27;66196;-40
2021/10/12 03:41:01;;;;;;;;;;;;;;;30.42;73.57;100529.03;5003110;27;69469;-36
2021/10/12 03:43:32;;;;;;;;;;;;;;;30.45;73.87;100515.03;5018298;27;66596;-37
2021/10/12 03:46:26;;;;;;;;;;;;;;;30.47;74.34;100507.53;5001877;27;69576;-38
2021/10/12 03:49:13;;;;;;;;;;;;;;;30.50;74.09;100516.00;4998614;27;66404;-37
2021/10/12 03:51:51;;;;;;;;;;;;;;;30.54;75.05;100513.72;5012342;27;69788;-39
2021/10/12 03:54:28;;;;;;;;;;;;;;;30.57;74.34;100518.66;5001485;27;66574;-37
2021/10/12 03:57:00;;;;;;;;;;;;;;;30.59;75.21;100511.16;4973422;28;69942;-37
2021/10/12 03:59:31;;;;;;;;;;;;;;;30.62;74.93;100505.28;5009658;27;67225;-37
2021/10/12 04:02:04;;;;;;;;;;;;;;;30.63;75.08;100506.91;5005356;27;69591;-38
2021/10/12 04:04:42;;;;;;;;;;;;;;;30.65;75.45;100504.81;5005837;27;66042;-37
2021/10/12 04:07:21;;;;;;;;;;;;;;;30.68;74.65;100490.81;5024337;27;69688;-36
2021/10/12 04:09:54;;;;;;;;;;;;;;;30.72;75.10;100493.88;4996880;27;65502;-36
2021/10/12 04:12:24;;;;;;;;;;;;;;;30.74;75.01;100494.50;4991741;27;70945;-36
2021/10/12 04:14:58;;;;;;;;;;;;;;;30.76;73.79;100480.72;5026146;27;66045;-37
2021/10/12 04:17:36;;;;;;;;;;;;;;;30.75;73.95;100465.53;5004176;27;69784;-35
2021/10/12 04:20:06;;;;;;;;;;;;;;;30.77;74.40;100463.44;4992094;27;66208;-35
2021/10/12 04:22:39;;;;;;;;;;;;;;;30.78;74.47;100460.47;5017280;27;69642;-37
2021/10/12 04:25:09;;;;;;;;;;;;;;;30.79;74.18;100450.50;4999129;27;65606;-37
2021/10/12 04:27:44;;;;;;;;;;;;;;;30.80;74.34;100446.75;4996562;27;70494;-38
2021/10/12 04:30:15;;;;;;;;;;;;;;;30.81;74.20;100437.56;5002751;27;66059;-37
2021/10/12 04:32:45;;;;;;;;;;;;;;;30.87;74.13;100425.81;4974910;27;69824;-36
2021/10/12 04:35:16;;;;;;;;;;;;;;;30.89;73.36;100419.09;5000258;27;65823;-36
2021/10/12 04:37:47;;;;;;;;;;;;;;;30.91;73.35;100406.16;4998934;27;69767;-37
2021/10/12 04:40:18;;;;;;;;;;;;;;;30.94;73.72;100394.84;5008240;27;66076;-36
2021/10/12 04:42:49;;;;;;;;;;;;;;;30.96;73.82;100397.34;4976889;28;70070;-36
2021/10/12 04:45:20;;;;;;;;;;;;;;;30.98;73.60;100392.53;4984532;27;66428;-38
2021/10/12 04:47:51;;;;;;;;;;;;;;;31.00;73.47;100390.41;4984266;27;69932;-37
2021/10/12 04:50:21;;;;;;;;;;;;;;;31.02;73.20;100385.56;4995686;27;66389;-38
2021/10/12 04:52:53;;;;;;;;;;;;;;;31.03;73.24;100376.38;4980477;27;69316;-37
2021/10/12 04:55:23;;;;;;;;;;;;;;;31.04;73.17;100372.63;4987536;27;66639;-36
2021/10/12 04:57:54;;;;;;;;;;;;;;;31.08;73.20;100367.56;4988018;27;69364;-36
2021/10/12 05:00:25;;;;;;;;;;;;;;;31.09;73.30;100375.47;4985544;27;66553;-36
2021/10/12 05:02:56;;;;;;;;;;;;;;;31.11;73.09;100376.03;4981302;27;69904;-36
2021/10/12 05:05:29;;;;;;;;;;;;;;;31.13;73.24;100373.09;4987196;27;66357;-36
2021/10/12 05:08:02;;;;;;;;;;;;;;;31.14;72.55;100372.84;4980003;27;69914;-37
2021/10/12 05:10:33;;;;;;;;;;;;;;;31.19;72.71;100363.22;4993853;27;66870;-37
2021/10/12 05:13:03;;;;;;;;;;;;;;;31.20;72.64;100364.84;4991873;27;70064;-36
2021/10/12 05:15:36;;;;;;;;;;;;;;;31.22;72.47;100357.31;4985645;27;65710;-37
2021/10/12 05:18:13;;;;;;;;;;;;;;;31.22;72.80;100362.75;4972845;28;69067;-36
2021/10/12 05:20:44;;;;;;;;;;;;;;;31.23;72.60;100367.09;4986790;27;66017;-36
2021/10/12 05:23:14;;;;;;;;;;;;;;;31.23;72.66;100358.97;5002967;27;70046;-37
2021/10/12 05:25:46;;;;;;;;;;;;;;;31.21;73.62;100351.09;4989709;27;66557;-37
2021/10/12 05:28:17;;;;;;;;;;;;;;;31.23;73.11;100350.84;4997255;27;70577;-38
2021/10/12 05:30:51;;;;;;;;;;;;;;;31.24;73.51;100344.38;5018871;27;66322;-37
2021/10/12 05:33:21;;;;;;;;;;;;;;;31.24;73.17;100344.38;4997225;27;69096;-36
2021/10/12 05:35:54;;;;;;;;;;;;;;;31.25;73.38;100351.44;4988946;27;66468;-36
2021/10/12 05:38:30;;;;;;;;;;;;;;;31.25;72.76;100335.19;4990558;27;69153;-36
2021/10/12 05:41:01;;;;;;;;;;;;;;;31.24;72.54;100344.38;4986738;27;66402;-37
2021/10/12 05:43:31;;;;;;;;;;;;;;;31.26;72.53;100325.97;4985674;27;69976;-37
2021/10/12 05:46:05;;;;;;;;;;;;;;;31.25;72.20;100327.03;4998055;27;67246;-36
2021/10/12 05:48:38;;;;;;;;;;;;;;;31.25;72.38;100317.03;5004425;27;71012;-38
2021/10/12 05:51:15;;;;;;;;;;;;;;;31.27;72.08;100316.81;4963733;28;66116;-35
2021/10/12 05:53:52;;;;;;;;;;;;;;;31.27;71.82;100308.69;4988736;27;70385;-37
2021/10/12 05:56:37;;;;;;;;;;;;;;;31.26;71.73;100299.72;4970351;28;66186;-35
2021/10/12 05:59:11;;;;;;;;;;;;;;;31.26;71.52;100290.75;4978145;27;69318;-37
2021/10/12 06:01:42;;;;;;;;;;;;;;;31.28;71.35;100291.34;4986242;27;66218;-37
2021/10/12 06:04:13;;;;;;;;;;;;;;;31.28;70.66;100288.63;4974777;28;70158;-37
2021/10/12 06:06:44;;;;;;;;;;;;;;;31.29;71.13;100279.47;4984727;27;66750;-37
2021/10/12 06:09:15;;;;;;;;;;;;;;;31.31;70.44;100288.97;4984803;27;69247;-37
2021/10/12 06:11:47;;;;;;;;;;;;;;;31.33;69.86;100272.50;4985037;27;66302;-37
2021/10/12 06:14:21;;;;;;;;;;;;;;;31.34;69.68;100269.56;4997479;27;69229;-36
2021/10/12 06:16:51;;;;;;;;;;;;;;;31.37;69.13;100268.25;4985586;27;65878;-36
2021/10/12 06:19:24;;;;;;;;;;;;;;;31.38;69.77;100253.66;4974282;27;70505;-35
2021/10/12 06:21:56;;;;;;;;;;;;;;;31.39;69.65;100255.31;4983555;27;65797;-35
2021/10/12 06:24:34;;;;;;;;;;;;;;;31.41;69.22;100252.38;4984447;27;69578;-36
2021/10/12 06:27:11;;;;;;;;;;;;;;;31.41;69.44;100236.94;5011583;27;66657;-36
2021/10/12 06:29:46;;;;;;;;;;;;;;;31.44;69.40;100241.88;4986966;27;69235;-36
2021/10/12 06:32:20;;;;;;;;;;;;;;;31.46;68.87;100233.50;4994050;27;65844;-37
2021/10/12 06:34:55;;;;;;;;;;;;;;;31.47;68.47;100235.97;4992026;27;70295;-36
2021/10/12 06:37:33;;;;;;;;;;;;;;;31.25;68.39;100205.13;4988212;27;66799;-36
2021/10/12 06:40:08;;;;;;;;;;;;;;;31.47;67.98;100238.66;5007964;27;69939;-36
2021/10/12 06:42:38;;;;;;;;;;;;;;;31.49;67.97;100233.84;5002829;27;65333;-37
2021/10/12 06:45:16;;;;;;;;;;;;;;;31.52;68.20;100219.00;4994055;27;69545;-36
2021/10/12 06:47:50;;;;;;;;;;;;;;;31.53;68.05;100240.41;4980723;27;66173;-36
2021/10/12 06:50:23;;;;;;;;;;;;;;;31.55;67.37;100224.75;4978235;27;69357;-38
2021/10/12 06:53:08;;;;;;;;;;;;;;;31.56;67.49;100210.13;4979376;28;66143;-36
2021/10/12 06:55:44;;;;;;;;;;;;;;;31.58;67.74;100210.69;5014000;27;70352;-36
2021/10/12 06:58:26;;;;;;;;;;;;;;;31.60;67.08;100197.75;5010021;27;65246;-35
2021/10/12 07:01:31;;;;;;;;;;;;;;;31.60;67.29;100197.75;5000311;27;69918;-37
2021/10/12 07:04:19;;;;;;;;;;;;;;;31.61;67.45;100210.22;4989345;27;66382;-37
2021/10/12 07:07:09;;;;;;;;;;;;;;;31.61;67.89;100193.94;5007889;27;69204;-37
2021/10/12 07:10:20;;;;;;;;;;;;;;;31.62;68.06;100189.34;5016293;27;66613;-36
2021/10/12 07:13:24;;;;;;;;;;;;;;;31.63;67.50;100201.03;4997674;27;70601;-36
2021/10/12 07:16:04;;;;;;;;;;;;;;;31.63;67.74;100207.28;4990399;27;65734;-37
2021/10/12 07:18:52;;;;;;;;;;;;;;;31.65;67.74;100198.88;4994912;27;69611;-36
2021/10/12 07:22:00;;;;;;;;;;;;;;;31.66;66.87;100195.94;4988678;27;65310;-37
2021/10/12 07:24:56;;;;;;;;;;;;;;;31.71;66.89;100214.22;4992203;27;70311;-35
2021/10/12 07:27:55;;;;;;;;;;;;;;;31.72;66.63;100196.88;5014226;27;66168;-37
2021/10/12 07:30:47;;;;;;;;;;;;;;;31.72;66.63;100199.56;4977798;27;70324;-36
2021/10/12 07:33:39;;;;;;;;;;;;;;;31.75;66.14;100199.91;4989425;27;66743;-36
2021/10/12 07:36:37;;;;;;;;;;;;;;;31.77;66.00;100214.06;4997840;27;69364;-36
2021/10/12 07:39:46;;;;;;;;;;;;;;;31.80;65.06;100204.63;4986702;27;66253;-36
2021/10/12 07:42:48;;;;;;;;;;;;;;;31.81;65.31;100206.25;4995222;27;69940;-36
2021/10/12 07:45:26;;;;;;;;;;;;;;;31.84;65.17;100219.31;5000851;27;65604;-37
2021/10/12 07:48:22;;;;;;;;;;;;;;;31.85;65.33;100212.84;4961545;27;70395;-36
2021/10/12 07:51:58;;;;;;;;;;;;;;;31.86;64.66;100211.78;5005913;27;66603;-36
2021/10/12 07:54:49;;;;;;;;;;;;;;;31.88;64.11;100209.66;5005302;27;69063;-35
2021/10/12 07:57:26;;;;;;;;;;;;;;;31.91;64.31;100202.91;4988318;28;66695;-36
2021/10/12 08:00:09;;;;;;;;;;;;;;;31.90;64.73;100196.69;5000095;27;69422;-38
2021/10/12 08:03:05;;;;;;;;;;;;;;;31.93;64.98;100192.66;5001406;28;65549;-37
2021/10/12 08:06:00;;;;;;;;;;;;;;;31.98;64.56;100192.75;5001900;27;69186;-37
2021/10/12 08:08:42;;;;;;;;;;;;;;;31.99;65.66;100181.66;4985891;27;66003;-37
2021/10/12 08:11:25;;;;;;;;;;;;;;;32.01;65.59;100193.09;4997834;27;71342;-37
2021/10/12 08:14:08;;;;;;;;;;;;;;;32.04;66.14;100186.38;4991236;27;65158;-36
2021/10/12 08:16:54;;;;;;;;;;;;;;;32.04;65.83;100192.63;4984333;28;68922;-35
2021/10/12 08:20:28;;;;;;;;;;;;;;;32.07;65.97;100198.59;4992164;27;66676;-36
2021/10/12 08:23:32;;;;;;;;;;;;;;;32.08;65.26;100197.56;4986068;27;70340;-36
2021/10/12 08:26:12;;;;;;;;;;;;;;;32.11;65.61;100197.06;4983994;27;65755;-38
2021/10/12 08:29:10;;;;;;;;;;;;;;;32.11;65.56;100197.88;4999660;27;69399;-36
2021/10/12 08:31:54;;;;;;;;;;;;;;;32.13;65.63;100184.06;4969560;27;66520;-36
2021/10/12 08:34:51;;;;;;;;;;;;;;;32.12;65.43;100185.13;5003378;27;69369;-35
2021/10/12 08:38:02;;;;;;;;;;;;;;;32.12;65.43;100183.22;5002069;27;66742;-38
2021/10/12 08:41:05;;;;;;;;;;;;;;;32.14;65.26;100180.28;4969334;27;70123;-36
2021/10/12 08:44:05;;;;;;;;;;;;;;;32.14;64.22;100169.44;5003576;27;66053;-36
2021/10/12 08:47:03;;;;;;;;;;;;;;;32.16;64.99;100172.72;5007729;27;69112;-37
2021/10/12 08:50:19;;;;;;;;;;;;;;;32.14;65.16;100164.00;5107886;27;44368;-43
2021/10/12 08:53:09;;;;;;;;;;;;;;;32.17;64.68;100161.63;5070775;27;70163;-37
2021/10/12 08:55:47;;;;;;;;;;;;;;;32.19;65.40;100164.09;5091960;27;66759;-37
2021/10/12 08:58:36;;;;;;;;;;;;;;;32.23;65.10;100167.94;5070195;27;70581;-37
2021/10/12 09:01:18;;;;;;;;;;;;;;;32.25;64.42;100168.53;5091776;27;64363;-36
2021/10/12 09:06:55;;;;;;;;;;;;;;;32.25;65.45;100154.97;5114114;27;66830;-39
2021/10/12 09:09:37;;;;;;;;;;;;;;;32.27;65.59;100158.25;5085022;27;70089;-36
2021/10/12 09:12:44;;;;;;;;;;;;;;;32.26;65.80;100162.03;5086334;27;65619;-36
2021/10/12 09:15:29;;;;;;;;;;;;;;;32.26;65.44;100164.72;5107356;27;70026;-36
2021/10/12 09:18:06;;;;;;;;;;;;;;;32.27;65.61;100152.81;5088755;27;65733;-36
2021/10/12 09:20:46;;;;;;;;;;;;;;;32.22;65.58;100166.31;5076620;27;69117;-36
2021/10/12 09:23:25;;;;;;;;;;;;;;;32.26;66.07;100162.03;5086402;27;65540;-37
2021/10/12 09:25:58;;;;;;;;;;;;;;;32.26;66.54;100162.03;5092667;27;70499;-36
2021/10/12 09:28:38;;;;;;;;;;;;;;;32.30;66.71;100162.38;5106355;27;65757;-37
2021/10/12 09:31:31;;;;;;;;;;;;;;;32.28;66.49;100176.19;5096511;27;70444;-37
2021/10/12 09:34:09;;;;;;;;;;;;;;;32.29;66.60;100188.69;5088290;27;65713;-40
2021/10/12 09:36:47;;;;;;;;;;;;;;;32.28;66.95;100195.16;5079707;27;69896;-39
2021/10/12 09:39:29;;;;;;;;;;;;;;;32.27;66.55;100196.25;5079499;27;66303;-38
2021/10/12 09:42:05;;;;;;;;;;;;;;;32.28;66.98;100216.88;5097526;27;70225;-38
2021/10/12 09:44:55;;;;;;;;;;;;;;;32.28;66.90;100219.59;5084234;27;66795;-38
2021/10/12 09:47:41;;;;;;;;;;;;;;;32.27;66.65;100217.97;5083083;27;69901;-38
2021/10/12 09:50:14;;;;;;;;;;;;;;;32.28;66.39;100214.16;5094780;27;65979;-38
2021/10/12 09:52:47;;;;;;;;;;;;;;;32.26;66.29;100225.28;5085396;27;68634;-38
2021/10/12 09:55:41;;;;;;;;;;;;;;;32.26;66.35;100228.00;5089180;27;66440;-38
2021/10/12 09:58:12;;;;;;;;;;;;;;;32.26;66.65;100249.72;5081097;27;68233;-37
2021/10/12 10:00:46;;;;;;;;;;;;;;;32.25;65.87;100249.94;5063499;27;65742;-39
2021/10/12 10:03:22;;;;;;;;;;;;;;;32.24;65.94;100257.25;5092069;27;69556;-37
2021/10/12 10:05:55;;;;;;;;;;;;;;;32.26;67.25;100248.88;5070346;27;65757;-37
2021/10/12 10:08:29;;;;;;;;;;;;;;;32.26;66.69;100257.00;5064043;27;68912;-39
2021/10/12 10:11:20;;;;;;;;;;;;;;;32.26;66.87;100259.72;5071040;27;65665;-38
2021/10/12 10:13:50;;;;;;;;;;;;;;;32.26;67.27;100262.44;5069671;27;70032;-37
2021/10/12 10:16:21;;;;;;;;;;;;;;;32.25;67.00;100268.94;5052117;27;66186;-37
2021/10/12 10:18:54;;;;;;;;;;;;;;;32.23;66.78;100266.47;5028375;27;70450;-38
2021/10/12 10:21:28;;;;;;;;;;;;;;;32.23;66.87;100276.50;5070451;27;65748;-38
2021/10/12 10:24:02;;;;;;;;;;;;;;;32.22;67.18;100274.84;5083100;27;70149;-38
2021/10/12 10:26:42;;;;;;;;;;;;;;;32.22;67.32;100283.00;5084136;27;65737;-38
2021/10/12 10:29:44;;;;;;;;;;;;;;;32.21;67.02;100284.91;5065420;27;71112;-38
2021/10/12 10:32:21;;;;;;;;;;;;;;;32.19;66.31;100294.34;5060295;27;66402;-37
2021/10/12 10:35:02;;;;;;;;;;;;;;;32.16;67.54;100303.78;5079501;27;70487;-37
2021/10/12 10:37:33;;;;;;;;;;;;;;;32.18;66.24;100314.38;5073473;27;66072;-38
2021/10/12 10:40:06;;;;;;;;;;;;;;;32.08;67.16;100315.03;5069306;27;70035;-37
2021/10/12 10:42:41;;;;;;;;;;;;;;;31.96;67.20;100309.66;5081212;27;66037;-38
2021/10/12 10:45:13;;;;;;;;;;;;;;;31.87;67.39;100308.34;5077293;27;69889;-38
2021/10/12 10:47:43;;;;;;;;;;;;;;;31.79;68.06;100323.13;5075199;27;66727;-37
2021/10/12 10:50:13;;;;;;;;;;;;;;;31.74;68.77;100327.63;5070339;27;70299;-37
2021/10/12 10:52:48;;;;;;;;;;;;;;;31.69;68.76;100335.63;5065561;27;65429;-37
2021/10/12 10:55:19;;;;;;;;;;;;;;;31.68;69.12;100333.97;5068158;27;70034;-37
2021/10/12 10:58:01;;;;;;;;;;;;;;;31.63;69.17;100342.84;5072346;27;66464;-37
2021/10/12 11:00:53;;;;;;;;;;;;;;;31.60;68.94;100349.56;5065778;27;70778;-37
2021/10/12 11:03:40;;;;;;;;;;;;;;;31.56;69.26;100351.09;5056303;28;65155;-37
2021/10/12 11:06:14;;;;;;;;;;;;;;;31.54;69.41;100363.25;5066144;27;69626;-37
2021/10/12 11:09:02;;;;;;;;;;;;;;;31.53;69.24;100367.81;5073026;27;66068;-37
2021/10/12 11:11:36;;;;;;;;;;;;;;;31.50;69.39;100364.78;5070619;27;70529;-38
2021/10/12 11:14:08;;;;;;;;;;;;;;;31.48;69.42;100367.75;5060526;27;66512;-38
2021/10/12 11:16:39;;;;;;;;;;;;;;;31.31;69.42;100345.06;5050470;27;68461;-39
2021/10/12 11:19:10;;;;;;;;;;;;;;;31.42;69.36;100367.84;5069663;27;67334;-38
2021/10/12 11:21:43;;;;;;;;;;;;;;;31.39;69.68;100380.78;5068629;27;70305;-38
2021/10/12 11:24:14;;;;;;;;;;;;;;;31.38;69.60;100384.56;5061507;27;64396;-38
2021/10/12 11:26:56;;;;;;;;;;;;;;;31.37;69.18;100393.78;5068494;27;70289;-38
2021/10/12 11:29:28;;;;;;;;;;;;;;;31.34;69.13;100394.22;5063176;27;65846;-38
2021/10/12 11:32:03;;;;;;;;;;;;;;;31.33;69.87;100397.97;5065239;27;69778;-38
2021/10/12 11:34:37;;;;;;;;;;;;;;;31.35;69.80;100416.72;5068154;27;66282;-38
2021/10/12 11:37:12;;;;;;;;;;;;;;;31.31;69.87;100418.22;5068878;27;69411;-38
2021/10/12 11:39:43;;;;;;;;;;;;;;;31.29;69.89;100428.50;5064697;27;66343;-38
2021/10/12 11:42:15;;;;;;;;;;;;;;;31.29;70.39;100412.25;5065853;27;70363;-38
2021/10/12 11:44:52;;;;;;;;;;;;;;;31.28;70.33;100421.41;5063802;27;66816;-37
2021/10/12 11:47:24;;;;;;;;;;;;;;;31.27;70.08;100420.59;5072489;27;70035;-38
2021/10/12 11:50:12;;;;;;;;;;;;;;;31.25;70.20;100433.53;5081734;27;66626;-38
2021/10/12 11:52:47;;;;;;;;;;;;;;;31.23;70.39;100429.41;5061828;27;68904;-37
2021/10/12 11:55:26;;;;;;;;;;;;;;;31.25;70.17;100435.44;5069554;27;67662;-37
2021/10/12 11:58:08;;;;;;;;;;;;;;;31.21;70.34;100445.94;5057706;27;69915;-38
2021/10/12 12:00:53;;;;;;;;;;;;;;;31.19;70.53;100444.50;5058205;27;66636;-38
2021/10/12 12:03:32;;;;;;;;;;;;;;;31.20;70.36;100451.56;5063081;27;69269;-38
2021/10/12 12:06:06;;;;;;;;;;;;;;;31.20;70.52;100451.56;5063028;27;65640;-38
2021/10/12 12:08:47;;;;;;;;;;;;;;;31.19;70.54;100455.34;5061212;27;70103;-37
2021/10/12 12:11:29;;;;;;;;;;;;;;;31.13;69.97;100457.91;5039626;27;67046;-37
2021/10/12 12:14:03;;;;;;;;;;;;;;;31.11;70.12;100451.06;5026968;27;69794;-37
2021/10/12 12:16:38;;;;;;;;;;;;;;;31.12;70.39;100461.69;5062748;27;65581;-38
2021/10/12 12:19:27;;;;;;;;;;;;;;;31.10;70.38;100480.06;5062084;27;69203;-38
2021/10/12 12:22:28;;;;;;;;;;;;;;;31.10;70.46;100469.22;5070016;27;66616;-38
2021/10/12 12:25:21;;;;;;;;;;;;;;;31.01;70.18;100461.63;5049854;27;70263;-38
2021/10/12 12:28:11;;;;;;;;;;;;;;;31.09;70.83;100478.41;5064704;27;66606;-37
2021/10/12 12:30:48;;;;;;;;;;;;;;;31.11;70.68;100486.28;5067710;27;70878;-38
2021/10/12 12:33:44;;;;;;;;;;;;;;;31.09;70.45;100489.25;5065914;27;66797;-38
2021/10/12 12:36:38;;;;;;;;;;;;;;;31.09;70.52;100489.25;5068921;27;70372;-38
2021/10/12 12:39:15;;;;;;;;;;;;;;;31.05;70.47;100493.47;5068694;27;65137;-38
2021/10/12 12:41:57;;;;;;;;;;;;;;;31.08;70.14;100503.84;5059776;27;69904;-38
2021/10/12 12:44:35;;;;;;;;;;;;;;;31.03;70.18;100506.41;5065784;27;66615;-38
2021/10/12 12:47:20;;;;;;;;;;;;;;;31.04;70.58;100518.91;5068101;27;70081;-38
2021/10/12 12:50:12;;;;;;;;;;;;;;;31.04;70.72;100521.63;5068004;27;65708;-38
2021/10/12 12:53:34;;;;;;;;;;;;;;;31.04;70.53;100540.59;5069951;27;70335;-37
2021/10/12 12:56:13;;;;;;;;;;;;;;;31.05;70.45;100546.81;5068856;27;65657;-37
2021/10/12 12:58:50;;;;;;;;;;;;;;;31.03;70.65;100552.44;5071107;27;69277;-38
2021/10/12 13:01:53;;;;;;;;;;;;;;;31.02;71.17;100555.41;5064614;27;66945;-38
2021/10/12 13:04:36;;;;;;;;;;;;;;;31.01;71.33;100557.31;5065991;27;69246;-38
2021/10/12 13:07:26;;;;;;;;;;;;;;;31.02;71.37;100563.53;5068785;27;66587;-37
2021/10/12 13:10:19;;;;;;;;;;;;;;;31.03;71.63;100566.00;5056894;27;70324;-38
2021/10/12 13:12:50;;;;;;;;;;;;;;;31.04;71.93;100567.66;5045887;28;66793;-37
2021/10/12 13:15:31;;;;;;;;;;;;;;;31.03;72.30;100567.88;5050168;27;69860;-38
2021/10/12 13:18:27;;;;;;;;;;;;;;;31.03;72.75;100565.19;5061595;27;66605;-38
2021/10/12 13:21:05;;;;;;;;;;;;;;;31.05;72.89;100563.91;5077744;27;69147;-38
2021/10/12 13:23:57;;;;;;;;;;;;;;;31.05;72.99;100571.19;5066953;27;65575;-38
2021/10/12 13:26:42;;;;;;;;;;;;;;;31.06;72.71;100575.56;5065301;27;70105;-38
2021/10/12 13:29:57;;;;;;;;;;;;;;;31.07;72.68;100572.63;5060122;27;66256;-38
2021/10/12 13:32:36;;;;;;;;;;;;;;;31.05;72.64;100573.91;5066140;27;70373;-38
2021/10/12 13:35:17;;;;;;;;;;;;;;;31.06;72.75;100576.38;5068442;27;66676;-37
2021/10/12 13:37:54;;;;;;;;;;;;;;;31.07;74.27;100578.03;5068013;27;70279;-38
2021/10/12 13:40:33;;;;;;;;;;;;;;;31.07;73.88;100571.81;5070103;27;66031;-38
2021/10/12 13:43:10;;;;;;;;;;;;;;;31.09;73.72;100581.38;5062332;27;69648;-37
2021/10/12 13:45:56;;;;;;;;;;;;;;;31.07;73.63;100577.22;5061083;27;66423;-39
2021/10/12 13:48:45;;;;;;;;;;;;;;;31.06;73.67;100586.38;5073831;27;69326;-39
2021/10/12 13:51:38;;;;;;;;;;;;;;;31.06;74.26;100587.22;5069152;27;65385;-38
2021/10/12 13:54:17;;;;;;;;;;;;;;;31.07;74.28;100577.22;5057047;27;70767;-38
2021/10/12 13:56:57;;;;;;;;;;;;;;;31.09;74.58;100575.09;5053153;27;65683;-38
2021/10/12 13:59:35;;;;;;;;;;;;;;;31.08;74.76;100578.88;5067411;27;69346;-38
2021/10/12 14:02:06;;;;;;;;;;;;;;;31.06;74.85;100576.38;5067559;27;65777;-38
2021/10/12 14:04:52;;;;;;;;;;;;;;;31.06;74.68;100581.78;5066033;27;70265;-37
2021/10/12 14:07:28;;;;;;;;;;;;;;;31.05;75.00;100585.56;5072275;27;66096;-37
2021/10/12 14:10:04;;;;;;;;;;;;;;;31.04;74.74;100583.94;5071682;27;69037;-37